sensor_id;sensor_type;location;lat;lon;timestamp;pressure;altitude;pressure_sealevel;temperature;humidity
76605;BME280;65496;50.978;16.998;2023-03-14T00:00:18;98373.03;;;22.08;37.02
76605;BME280;65496;50.978;16.998;2023-03-14T00:03:04;98360.44;;;22.07;36.58
76605;BME280;65496;50.978;16.998;2023-03-14T00:05:30;98343.94;;;22.04;36.93
76605;BME280;65496;50.978;16.998;2023-03-14T00:07:56;98362.81;;;22.09;36.83
76605;BME280;65496;50.978;16.998;2023-03-14T00:10:22;98362.81;;;22.05;36.86
76605;BME280;65496;50.978;16.998;2023-03-14T00:12:48;98375.00;;;22.08;36.83
76605;BME280;65496;50.978;16.998;2023-03-14T00:15:14;98376.19;;;22.07;36.79
76605;BME280;65496;50.978;16.998;2023-03-14T00:17:42;98371.47;;;22.07;36.73
76605;BME280;65496;50.978;16.998;2023-03-14T00:20:09;98369.88;;;22.06;36.60
76605;BME280;65496;50.978;16.998;2023-03-14T00:22:40;98363.19;;;22.07;36.65
76605;BME280;65496;50.978;16.998;2023-03-14T00:25:09;98365.94;;;22.07;36.74
76605;BME280;65496;50.978;16.998;2023-03-14T00:27:35;98371.47;;;22.07;36.76
76605;BME280;65496;50.978;16.998;2023-03-14T00:30:03;98380.91;;;22.06;36.57
76605;BME280;65496;50.978;16.998;2023-03-14T00:32:29;98374.63;;;22.06;36.76
76605;BME280;65496;50.978;16.998;2023-03-14T00:34:55;98368.72;;;22.07;36.88
76605;BME280;65496;50.978;16.998;2023-03-14T00:37:21;98378.16;;;22.06;36.86
76605;BME280;65496;50.978;16.998;2023-03-14T00:39:47;98376.56;;;22.05;36.84
76605;BME280;65496;50.978;16.998;2023-03-14T00:42:13;98366.75;;;22.04;36.60
76605;BME280;65496;50.978;16.998;2023-03-14T00:44:40;98366.38;;;22.02;36.46
76605;BME280;65496;50.978;16.998;2023-03-14T00:47:06;98371.06;;;22.05;36.56
76605;BME280;65496;50.978;16.998;2023-03-14T00:49:32;98355.75;;;22.04;36.50
76605;BME280;65496;50.978;16.998;2023-03-14T00:51:58;98364.81;;;22.05;36.53
76605;BME280;65496;50.978;16.998;2023-03-14T00:54:24;98363.63;;;22.02;36.66
76605;BME280;65496;50.978;16.998;2023-03-14T00:56:50;98390.38;;;22.02;36.44
76605;BME280;65496;50.978;16.998;2023-03-14T00:59:16;98428.19;;;22.05;36.44
76605;BME280;65496;50.978;16.998;2023-03-14T01:01:43;98425.44;;;22.05;36.32
76605;BME280;65496;50.978;16.998;2023-03-14T01:04:10;98435.25;;;22.06;36.43
76605;BME280;65496;50.978;16.998;2023-03-14T01:06:36;98411.66;;;22.05;36.29
76605;BME280;65496;50.978;16.998;2023-03-14T01:09:02;98418.34;;;22.04;36.46
76605;BME280;65496;50.978;16.998;2023-03-14T01:11:31;98401.81;;;22.04;36.23
76605;BME280;65496;50.978;16.998;2023-03-14T01:13:58;98406.53;;;22.03;36.34
76605;BME280;65496;50.978;16.998;2023-03-14T01:16:27;98416.75;;;22.03;36.35
76605;BME280;65496;50.978;16.998;2023-03-14T01:18:54;98406.16;;;21.98;36.24
76605;BME280;65496;50.978;16.998;2023-03-14T01:21:31;98406.91;;;22.02;36.40
76605;BME280;65496;50.978;16.998;2023-03-14T01:24:01;98404.16;;;22.02;36.45
76605;BME280;65496;50.978;16.998;2023-03-14T01:26:30;98392.00;;;21.99;36.28
76605;BME280;65496;50.978;16.998;2023-03-14T01:28:57;98378.56;;;22.01;36.36
76605;BME280;65496;50.978;16.998;2023-03-14T01:31:24;98371.13;;;21.98;36.42
76605;BME280;65496;50.978;16.998;2023-03-14T01:33:50;98353.81;;;21.98;36.21
76605;BME280;65496;50.978;16.998;2023-03-14T01:36:16;98319.19;;;21.97;36.35
76605;BME280;65496;50.978;16.998;2023-03-14T01:38:43;98289.28;;;21.95;36.41
76605;BME280;65496;50.978;16.998;2023-03-14T01:41:16;98308.13;;;22.00;36.40
76605;BME280;65496;50.978;16.998;2023-03-14T01:43:44;98366.41;;;21.99;36.39
76605;BME280;65496;50.978;16.998;2023-03-14T01:46:16;98360.50;;;22.00;36.21
76605;BME280;65496;50.978;16.998;2023-03-14T01:54:16;98326.63;;;22.00;36.25
76605;BME280;65496;50.978;16.998;2023-03-14T01:56:46;98320.34;;;21.99;36.25
76605;BME280;65496;50.978;16.998;2023-03-14T01:59:14;98305.03;;;21.91;36.23
76605;BME280;65496;50.978;16.998;2023-03-14T02:01:43;98297.94;;;21.97;36.22
76605;BME280;65496;50.978;16.998;2023-03-14T02:04:11;98275.47;;;21.99;36.31
76605;BME280;65496;50.978;16.998;2023-03-14T02:07:03;98270.75;;;21.99;36.23
76605;BME280;65496;50.978;16.998;2023-03-14T02:09:31;98268.38;;;21.98;36.19
76605;BME280;65496;50.978;16.998;2023-03-14T02:11:57;98275.88;;;21.97;36.44
76605;BME280;65496;50.978;16.998;2023-03-14T02:14:33;98274.69;;;21.98;36.16
76605;BME280;65496;50.978;16.998;2023-03-14T02:17:02;98287.66;;;21.98;36.33
76605;BME280;65496;50.978;16.998;2023-03-14T02:22:11;98270.38;;;21.97;36.15
76605;BME280;65496;50.978;16.998;2023-03-14T02:24:57;98261.69;;;21.99;36.42
76605;BME280;65496;50.978;16.998;2023-03-14T02:27:26;98257.34;;;21.98;36.25
76605;BME280;65496;50.978;16.998;2023-03-14T02:32:20;98220.00;;;21.97;36.21
76605;BME280;65496;50.978;16.998;2023-03-14T02:34:50;98215.25;;;21.97;36.55
76605;BME280;65496;50.978;16.998;2023-03-14T02:37:19;98201.50;;;21.97;36.21
76605;BME280;65496;50.978;16.998;2023-03-14T02:39:46;98199.91;;;21.96;36.11
76605;BME280;65496;50.978;16.998;2023-03-14T02:42:15;98206.59;;;21.95;36.25
76605;BME280;65496;50.978;16.998;2023-03-14T02:47:29;98200.72;;;21.90;36.39
76605;BME280;65496;50.978;16.998;2023-03-14T02:50:02;98201.50;;;21.94;36.29
76605;BME280;65496;50.978;16.998;2023-03-14T02:52:29;98198.34;;;21.95;36.29
76605;BME280;65496;50.978;16.998;2023-03-14T02:54:56;98203.06;;;21.95;36.08
76605;BME280;65496;50.978;16.998;2023-03-14T02:57:21;98181.44;;;21.93;36.11
76605;BME280;65496;50.978;16.998;2023-03-14T02:59:48;98181.44;;;21.93;36.04
76605;BME280;65496;50.978;16.998;2023-03-14T03:02:14;98169.22;;;21.94;36.05
76605;BME280;65496;50.978;16.998;2023-03-14T03:04:40;98144.53;;;21.80;36.20
76605;BME280;65496;50.978;16.998;2023-03-14T03:07:06;98139.34;;;21.89;36.18
76605;BME280;65496;50.978;16.998;2023-03-14T03:09:32;98149.56;;;21.92;36.20
76605;BME280;65496;50.978;16.998;2023-03-14T03:11:58;98150.34;;;21.93;36.30
76605;BME280;65496;50.978;16.998;2023-03-14T03:14:24;98153.88;;;21.90;36.06
76605;BME280;65496;50.978;16.998;2023-03-14T03:16:50;98157.91;;;21.81;36.04
76605;BME280;65496;50.978;16.998;2023-03-14T03:19:17;98159.38;;;21.90;36.17
76605;BME280;65496;50.978;16.998;2023-03-14T03:21:44;98158.19;;;21.91;36.11
76605;BME280;65496;50.978;16.998;2023-03-14T03:24:10;98156.25;;;21.91;36.24
76605;BME280;65496;50.978;16.998;2023-03-14T03:26:36;98157.03;;;21.92;36.24
76605;BME280;65496;50.978;16.998;2023-03-14T03:29:03;98140.53;;;21.88;36.24
76605;BME280;65496;50.978;16.998;2023-03-14T03:31:29;98129.84;;;21.90;36.23
76605;BME280;65496;50.978;16.998;2023-03-14T03:36:23;98093.25;;;21.90;36.18
76605;BME280;65496;50.978;16.998;2023-03-14T03:38:50;98098.41;;;21.88;36.06
76605;BME280;65496;50.978;16.998;2023-03-14T03:41:16;98081.47;;;21.89;36.27
76605;BME280;65496;50.978;16.998;2023-03-14T03:43:42;98064.94;;;21.89;36.11
76605;BME280;65496;50.978;16.998;2023-03-14T03:46:08;98063.78;;;21.86;36.35
76605;BME280;65496;50.978;16.998;2023-03-14T03:48:35;98078.72;;;21.89;36.22
76605;BME280;65496;50.978;16.998;2023-03-14T03:51:01;98095.66;;;21.88;36.22
76605;BME280;65496;50.978;16.998;2023-03-14T03:53:27;98087.00;;;21.89;36.34
76605;BME280;65496;50.978;16.998;2023-03-14T03:55:53;98077.97;;;21.85;36.25
76605;BME280;65496;50.978;16.998;2023-03-14T03:58:19;98081.47;;;21.89;36.16
76605;BME280;65496;50.978;16.998;2023-03-14T04:00:45;98060.75;;;21.77;36.03
76605;BME280;65496;50.978;16.998;2023-03-14T04:03:12;98093.25;;;21.90;36.36
76605;BME280;65496;50.978;16.998;2023-03-14T04:05:37;98080.28;;;21.90;36.06
76605;BME280;65496;50.978;16.998;2023-03-14T04:08:04;98085.00;;;21.90;36.15
76605;BME280;65496;50.978;16.998;2023-03-14T04:10:33;98070.47;;;21.89;36.26
76605;BME280;65496;50.978;16.998;2023-03-14T04:12:59;98045.38;;;21.80;36.24
76605;BME280;65496;50.978;16.998;2023-03-14T04:15:25;98053.59;;;21.83;36.30
76605;BME280;65496;50.978;16.998;2023-03-14T04:17:56;98060.97;;;21.90;36.20
76605;BME280;65496;50.978;16.998;2023-03-14T04:20:23;98026.22;;;21.69;36.34
76605;BME280;65496;50.978;16.998;2023-03-14T04:22:52;98041.44;;;21.81;36.32
76605;BME280;65496;50.978;16.998;2023-03-14T04:25:18;98051.19;;;21.89;36.29
76605;BME280;65496;50.978;16.998;2023-03-14T04:30:12;98026.00;;;21.87;36.37
76605;BME280;65496;50.978;16.998;2023-03-14T04:32:39;98017.78;;;21.83;36.36
76605;BME280;65496;50.978;16.998;2023-03-14T04:35:05;98011.03;;;21.88;36.37
76605;BME280;65496;50.978;16.998;2023-03-14T04:37:32;98006.34;;;21.85;36.30
76605;BME280;65496;50.978;16.998;2023-03-14T04:39:57;98017.72;;;21.87;36.27
76605;BME280;65496;50.978;16.998;2023-03-14T04:42:24;98013.78;;;21.88;36.33
76605;BME280;65496;50.978;16.998;2023-03-14T04:44:49;98002.38;;;21.86;36.37
76605;BME280;65496;50.978;16.998;2023-03-14T04:47:16;98017.38;;;21.85;36.42
76605;BME280;65496;50.978;16.998;2023-03-14T04:49:42;98012.22;;;21.87;36.27
76605;BME280;65496;50.978;16.998;2023-03-14T04:52:08;98006.72;;;21.87;36.18
76605;BME280;65496;50.978;16.998;2023-03-14T04:54:34;98010.28;;;21.84;36.24
76605;BME280;65496;50.978;16.998;2023-03-14T04:57:00;98018.91;;;21.86;36.35
76605;BME280;65496;50.978;16.998;2023-03-14T04:59:26;98022.50;;;21.83;36.39
76605;BME280;65496;50.978;16.998;2023-03-14T05:01:52;98040.59;;;21.84;36.17
76605;BME280;65496;50.978;16.998;2023-03-14T05:04:18;98053.53;;;21.87;36.17
76605;BME280;65496;50.978;16.998;2023-03-14T05:06:44;98055.13;;;21.88;36.24
76605;BME280;65496;50.978;16.998;2023-03-14T05:09:10;98053.53;;;21.87;36.35
76605;BME280;65496;50.978;16.998;2023-03-14T05:11:36;98053.53;;;21.87;36.02
76605;BME280;65496;50.978;16.998;2023-03-14T05:14:02;98041.75;;;21.86;36.17
76605;BME280;65496;50.978;16.998;2023-03-14T05:16:28;98048.03;;;21.87;36.06
76605;BME280;65496;50.978;16.998;2023-03-14T05:18:54;98040.16;;;21.89;36.16
76605;BME280;65496;50.978;16.998;2023-03-14T05:21:20;98015.03;;;21.83;36.13
76605;BME280;65496;50.978;16.998;2023-03-14T05:23:46;97983.53;;;21.84;36.26
76605;BME280;65496;50.978;16.998;2023-03-14T05:26:12;98003.16;;;21.86;35.98
76605;BME280;65496;50.978;16.998;2023-03-14T05:28:38;98000.84;;;21.85;36.20
76605;BME280;65496;50.978;16.998;2023-03-14T05:31:09;98005.94;;;21.86;36.12
76605;BME280;65496;50.978;16.998;2023-03-14T05:33:35;98023.25;;;21.87;36.19
76605;BME280;65496;50.978;16.998;2023-03-14T05:36:01;98038.97;;;21.86;36.15
76605;BME280;65496;50.978;16.998;2023-03-14T05:38:27;98029.94;;;21.86;35.97
76605;BME280;65496;50.978;16.998;2023-03-14T05:40:53;98024.44;;;21.86;36.29
76605;BME280;65496;50.978;16.998;2023-03-14T05:43:19;98028.41;;;21.85;36.17
76605;BME280;65496;50.978;16.998;2023-03-14T05:45:45;98037.00;;;21.87;36.42
76605;BME280;65496;50.978;16.998;2023-03-14T05:48:13;98033.91;;;21.85;36.42
76605;BME280;65496;50.978;16.998;2023-03-14T05:50:44;98031.50;;;21.87;36.86
76605;BME280;65496;50.978;16.998;2023-03-14T05:53:10;98033.06;;;21.88;37.01
76605;BME280;65496;50.978;16.998;2023-03-14T05:55:37;98022.88;;;21.85;37.27
76605;BME280;65496;50.978;16.998;2023-03-14T05:58:02;98029.97;;;21.82;37.21
76605;BME280;65496;50.978;16.998;2023-03-14T06:00:29;98040.97;;;21.86;37.60
76605;BME280;65496;50.978;16.998;2023-03-14T06:02:55;98045.28;;;21.87;37.50
76605;BME280;65496;50.978;16.998;2023-03-14T06:05:21;98029.19;;;21.82;37.58
76605;BME280;65496;50.978;16.998;2023-03-14T06:07:47;98031.91;;;21.89;37.37
76605;BME280;65496;50.978;16.998;2023-03-14T06:10:13;98029.13;;;21.89;37.60
76605;BME280;65496;50.978;16.998;2023-03-14T06:12:39;98004.38;;;21.85;37.37
76605;BME280;65496;50.978;16.998;2023-03-14T06:15:05;98009.84;;;21.89;37.33
76605;BME280;65496;50.978;16.998;2023-03-14T06:17:31;98020.88;;;21.89;37.00
76605;BME280;65496;50.978;16.998;2023-03-14T06:19:58;98025.22;;;21.86;37.02
76605;BME280;65496;50.978;16.998;2023-03-14T06:22:24;98033.06;;;21.88;37.14
76605;BME280;65496;50.978;16.998;2023-03-14T06:24:50;98045.66;;;21.89;37.33
76605;BME280;65496;50.978;16.998;2023-03-14T06:27:16;98059.44;;;21.89;37.33
76605;BME280;65496;50.978;16.998;2023-03-14T06:29:42;98062.94;;;21.90;37.23
76605;BME280;65496;50.978;16.998;2023-03-14T06:32:08;98044.50;;;21.86;37.15
76605;BME280;65496;50.978;16.998;2023-03-14T06:37:00;98041.78;;;21.83;37.13
76605;BME280;65496;50.978;16.998;2023-03-14T06:39:26;98041.75;;;21.86;36.95
76605;BME280;65496;50.978;16.998;2023-03-14T06:41:52;98047.25;;;21.86;37.44
76605;BME280;65496;50.978;16.998;2023-03-14T06:44:18;98056.31;;;21.87;37.51
76605;BME280;65496;50.978;16.998;2023-03-14T06:46:44;98067.72;;;21.89;37.28
76605;BME280;65496;50.978;16.998;2023-03-14T06:51:36;98073.22;;;21.89;37.33
76605;BME280;65496;50.978;16.998;2023-03-14T06:54:02;98064.94;;;21.89;37.37
76605;BME280;65496;50.978;16.998;2023-03-14T06:56:28;98062.25;;;21.82;37.35
76605;BME280;65496;50.978;16.998;2023-03-14T06:58:55;98075.97;;;21.89;37.44
76605;BME280;65496;50.978;16.998;2023-03-14T07:01:25;98076.72;;;21.90;37.49
76605;BME280;65496;50.978;16.998;2023-03-14T07:03:52;98070.03;;;21.91;37.75
76605;BME280;65496;50.978;16.998;2023-03-14T07:06:18;98065.75;;;21.86;37.82
76605;BME280;65496;50.978;16.998;2023-03-14T07:08:44;98075.97;;;21.93;37.86
76605;BME280;65496;50.978;16.998;2023-03-14T07:11:10;98085.75;;;21.94;38.06
76605;BME280;65496;50.978;16.998;2023-03-14T07:13:38;98098.38;;;21.95;38.20
76605;BME280;65496;50.978;16.998;2023-03-14T07:16:05;98089.81;;;21.82;38.36
76605;BME280;65496;50.978;16.998;2023-03-14T07:18:31;98112.13;;;21.95;38.38
76605;BME280;65496;50.978;16.998;2023-03-14T07:20:57;98120.00;;;21.96;38.19
76605;BME280;65496;50.978;16.998;2023-03-14T07:23:23;98117.25;;;21.96;38.49
76605;BME280;65496;50.978;16.998;2023-03-14T07:25:49;98096.03;;;21.93;38.32
76605;BME280;65496;50.978;16.998;2023-03-14T07:28:17;98089.75;;;21.93;38.92
76605;BME280;65496;50.978;16.998;2023-03-14T07:30:43;98096.34;;;21.99;38.99
76605;BME280;65496;50.978;16.998;2023-03-14T07:33:09;98103.84;;;21.98;39.21
76605;BME280;65496;50.978;16.998;2023-03-14T07:35:35;98087.69;;;22.00;39.22
76605;BME280;65496;50.978;16.998;2023-03-14T07:38:01;98067.66;;;21.96;39.26
76605;BME280;65496;50.978;16.998;2023-03-14T07:40:27;98080.25;;;21.97;39.10
76605;BME280;65496;50.978;16.998;2023-03-14T07:42:53;98085.72;;;22.01;39.13
76605;BME280;65496;50.978;16.998;2023-03-14T07:45:21;98092.78;;;22.02;38.93
76605;BME280;65496;50.978;16.998;2023-03-14T07:47:47;98102.59;;;22.03;39.20
76605;BME280;65496;50.978;16.998;2023-03-14T07:50:13;98110.88;;;22.03;38.84
76605;BME280;65496;50.978;16.998;2023-03-14T07:52:39;98102.25;;;22.01;38.65
76605;BME280;65496;50.978;16.998;2023-03-14T07:55:05;98104.22;;;22.00;38.69
76605;BME280;65496;50.978;16.998;2023-03-14T07:57:31;98093.97;;;22.01;38.51
76605;BME280;65496;50.978;16.998;2023-03-14T07:59:57;98091.97;;;22.01;38.55
76605;BME280;65496;50.978;16.998;2023-03-14T08:02:23;98097.50;;;22.01;38.36
76605;BME280;65496;50.978;16.998;2023-03-14T08:04:50;98090.06;;;21.98;38.33
76605;BME280;65496;50.978;16.998;2023-03-14T08:07:16;98087.31;;;21.98;38.48
76605;BME280;65496;50.978;16.998;2023-03-14T08:09:43;98073.91;;;22.00;38.50
76605;BME280;65496;50.978;16.998;2023-03-14T08:12:09;98059.75;;;21.98;38.55
76605;BME280;65496;50.978;16.998;2023-03-14T08:14:35;98080.25;;;21.97;38.64
76605;BME280;65496;50.978;16.998;2023-03-14T08:17:01;98069.66;;;21.92;38.46
76605;BME280;65496;50.978;16.998;2023-03-14T08:19:28;98085.38;;;21.95;38.79
76605;BME280;65496;50.978;16.998;2023-03-14T08:21:54;98081.88;;;21.88;38.56
76605;BME280;65496;50.978;16.998;2023-03-14T08:24:20;98088.13;;;21.95;38.78
76605;BME280;65496;50.978;16.998;2023-03-14T08:26:46;98079.84;;;21.95;38.79
76605;BME280;65496;50.978;16.998;2023-03-14T08:29:12;98101.91;;;21.95;38.54
76605;BME280;65496;50.978;16.998;2023-03-14T08:31:38;98134.19;;;21.95;38.67
76605;BME280;65496;50.978;16.998;2023-03-14T08:34:04;98138.50;;;21.96;38.66
76605;BME280;65496;50.978;16.998;2023-03-14T08:36:32;98140.13;;;21.93;38.30
76605;BME280;65496;50.978;16.998;2023-03-14T08:38:58;98136.56;;;21.93;38.50
76605;BME280;65496;50.978;16.998;2023-03-14T08:41:25;98151.53;;;21.88;38.01
76605;BME280;65496;50.978;16.998;2023-03-14T08:43:51;98153.50;;;21.91;37.87
76605;BME280;65496;50.978;16.998;2023-03-14T08:46:17;98158.63;;;21.89;37.60
76605;BME280;65496;50.978;16.998;2023-03-14T08:48:43;98154.28;;;21.88;37.83
76605;BME280;65496;50.978;16.998;2023-03-14T08:51:11;98154.69;;;21.86;37.56
76605;BME280;65496;50.978;16.998;2023-03-14T08:53:38;98146.44;;;21.86;37.58
76605;BME280;65496;50.978;16.998;2023-03-14T08:56:05;98142.88;;;21.86;37.48
76605;BME280;65496;50.978;16.998;2023-03-14T08:58:32;98141.72;;;21.87;37.46
76605;BME280;65496;50.978;16.998;2023-03-14T09:00:58;98154.28;;;21.88;37.45
76605;BME280;65496;50.978;16.998;2023-03-14T09:03:25;98141.75;;;21.83;37.39
76605;BME280;65496;50.978;16.998;2023-03-14T09:05:52;98141.75;;;21.83;37.38
76605;BME280;65496;50.978;16.998;2023-03-14T09:08:18;98145.59;;;21.90;37.28
76605;BME280;65496;50.978;16.998;2023-03-14T09:10:44;98144.84;;;21.89;37.21
76605;BME280;65496;50.978;16.998;2023-03-14T09:13:10;98144.84;;;21.89;37.28
76605;BME280;65496;50.978;16.998;2023-03-14T09:18:02;98125.56;;;21.89;37.24
76605;BME280;65496;50.978;16.998;2023-03-14T09:20:28;98112.66;;;21.79;37.12
76605;BME280;65496;50.978;16.998;2023-03-14T09:22:54;98130.66;;;21.91;37.27
76605;BME280;65496;50.978;16.998;2023-03-14T09:25:20;98151.91;;;21.90;37.14
76605;BME280;65496;50.978;16.998;2023-03-14T09:27:46;98146.03;;;21.88;37.19
76605;BME280;65496;50.978;16.998;2023-03-14T09:30:13;98151.53;;;21.92;37.14
76605;BME280;65496;50.978;16.998;2023-03-14T09:32:39;98163.34;;;21.92;37.17
76605;BME280;65496;50.978;16.998;2023-03-14T09:35:05;98170.03;;;21.91;37.34
76605;BME280;65496;50.978;16.998;2023-03-14T09:37:31;98164.88;;;21.90;37.36
76605;BME280;65496;50.978;16.998;2023-03-14T09:39:58;98165.31;;;21.92;37.21
76605;BME280;65496;50.978;16.998;2023-03-14T09:42:26;98177.13;;;21.92;37.26
76605;BME280;65496;50.978;16.998;2023-03-14T09:44:56;98189.31;;;21.91;37.41
76605;BME280;65496;50.978;16.998;2023-03-14T09:47:24;98192.47;;;21.93;37.35
76605;BME280;65496;50.978;16.998;2023-03-14T09:49:52;98188.94;;;21.93;37.58
76605;BME280;65496;50.978;16.998;2023-03-14T09:52:22;98190.09;;;21.92;37.54
76605;BME280;65496;50.978;16.998;2023-03-14T09:55:13;98186.97;;;21.93;37.35
76605;BME280;65496;50.978;16.998;2023-03-14T09:57:39;98194.00;;;21.94;37.54
76605;BME280;65496;50.978;16.998;2023-03-14T10:00:18;98185.75;;;21.94;37.37
76605;BME280;65496;50.978;16.998;2023-03-14T10:02:51;98184.19;;;21.90;37.50
76605;BME280;65496;50.978;16.998;2023-03-14T10:05:21;98184.97;;;21.90;37.53
76605;BME280;65496;50.978;16.998;2023-03-14T10:07:47;98197.56;;;21.95;37.52
76605;BME280;65496;50.978;16.998;2023-03-14T10:10:18;98195.59;;;21.95;37.67
76605;BME280;65496;50.978;16.998;2023-03-14T10:12:46;98188.13;;;21.92;37.76
76605;BME280;65496;50.978;16.998;2023-03-14T10:15:15;98186.94;;;21.97;37.81
76605;BME280;65496;50.978;16.998;2023-03-14T10:17:50;98184.16;;;21.97;37.72
76605;BME280;65496;50.978;16.998;2023-03-14T10:20:34;98190.47;;;21.97;37.72
76605;BME280;65496;50.978;16.998;2023-03-14T10:23:18;98183.75;;;21.98;37.73
76605;BME280;65496;50.978;16.998;2023-03-14T10:26:05;98177.03;;;21.99;37.66
76605;BME280;65496;50.978;16.998;2023-03-14T10:31:04;98184.13;;;22.00;37.55
76605;BME280;65496;50.978;16.998;2023-03-14T10:33:34;98168.38;;;22.01;37.55
76605;BME280;65496;50.978;16.998;2023-03-14T10:36:03;98169.13;;;22.01;37.72
76605;BME280;65496;50.978;16.998;2023-03-14T10:38:35;98167.97;;;22.02;37.70
76605;BME280;65496;50.978;16.998;2023-03-14T10:41:16;98164.41;;;22.02;37.81
76605;BME280;65496;50.978;16.998;2023-03-14T10:43:43;98156.53;;;22.04;37.67
76605;BME280;65496;50.978;16.998;2023-03-14T10:46:14;98145.50;;;22.04;37.81
76605;BME280;65496;50.978;16.998;2023-03-14T10:48:41;98147.47;;;22.03;37.73
76605;BME280;65496;50.978;16.998;2023-03-14T10:51:19;98154.13;;;22.06;37.49
76605;BME280;65496;50.978;16.998;2023-03-14T10:54:00;98161.22;;;22.07;37.75
76605;BME280;65496;50.978;16.998;2023-03-14T10:56:33;98162.00;;;22.07;37.48
76605;BME280;65496;50.978;16.998;2023-03-14T10:59:00;98161.22;;;22.07;37.76
76605;BME280;65496;50.978;16.998;2023-03-14T11:09:48;98153.69;;;22.11;37.95
76605;BME280;65496;50.978;16.998;2023-03-14T11:13:00;98154.50;;;22.11;37.58
76605;BME280;65496;50.978;16.998;2023-03-14T11:15:34;98150.13;;;22.14;37.80
76605;BME280;65496;50.978;16.998;2023-03-14T11:21:04;98148.53;;;22.16;37.81
76605;BME280;65496;50.978;16.998;2023-03-14T11:29:21;98128.16;;;22.07;37.41
76605;BME280;65496;50.978;16.998;2023-03-14T11:31:48;98136.81;;;22.05;37.78
76605;BME280;65496;50.978;16.998;2023-03-14T11:37:06;98121.38;;;22.15;38.80
76605;BME280;65496;50.978;16.998;2023-03-14T11:39:44;98124.88;;;22.19;38.79
76605;BME280;65496;50.978;16.998;2023-03-14T11:42:16;98125.63;;;22.23;38.88
76605;BME280;65496;50.978;16.998;2023-03-14T11:44:48;98126.75;;;22.25;38.85
76605;BME280;65496;50.978;16.998;2023-03-14T11:47:15;98127.94;;;22.28;38.88
76605;BME280;65496;50.978;16.998;2023-03-14T11:49:51;98123.97;;;22.29;38.70
76605;BME280;65496;50.978;16.998;2023-03-14T11:52:25;98119.22;;;22.29;38.64
76605;BME280;65496;50.978;16.998;2023-03-14T11:57:44;98115.25;;;22.34;39.05
76605;BME280;65496;50.978;16.998;2023-03-14T12:00:16;98115.59;;;22.36;39.09
76605;BME280;65496;50.978;16.998;2023-03-14T12:08:00;98123.84;;;22.40;39.12
76605;BME280;65496;50.978;16.998;2023-03-14T12:10:35;98120.31;;;22.39;39.17
76605;BME280;65496;50.978;16.998;2023-03-14T12:13:02;98112.81;;;22.40;38.99
76605;BME280;65496;50.978;16.998;2023-03-14T12:15:29;98108.06;;;22.40;39.06
76605;BME280;65496;50.978;16.998;2023-03-14T12:17:55;98099.03;;;22.40;38.97
76605;BME280;65496;50.978;16.998;2023-03-14T12:20:25;98101.78;;;22.40;38.67
76605;BME280;65496;50.978;16.998;2023-03-14T12:22:53;98088.00;;;22.40;38.97
76605;BME280;65496;50.978;16.998;2023-03-14T12:25:26;98090.75;;;22.40;38.79
76605;BME280;65496;50.978;16.998;2023-03-14T12:30:30;98088.75;;;22.40;38.81
76605;BME280;65496;50.978;16.998;2023-03-14T12:35:39;98085.59;;;22.42;38.74
76605;BME280;65496;50.978;16.998;2023-03-14T12:41:15;98074.56;;;22.42;38.68
76605;BME280;65496;50.978;16.998;2023-03-14T12:43:43;98084.81;;;22.41;38.64
76605;BME280;65496;50.978;16.998;2023-03-14T12:48:45;98087.19;;;22.43;38.72
76605;BME280;65496;50.978;16.998;2023-03-14T12:51:35;98085.59;;;22.42;38.65
76605;BME280;65496;50.978;16.998;2023-03-14T12:59:34;98056.06;;;22.42;38.56
76605;BME280;65496;50.978;16.998;2023-03-14T13:04:44;98044.00;;;22.29;38.07
76605;BME280;65496;50.978;16.998;2023-03-14T13:07:31;98061.19;;;22.40;38.63
76605;BME280;65496;50.978;16.998;2023-03-14T13:10:21;98060.78;;;22.42;38.69
76605;BME280;65496;50.978;16.998;2023-03-14T13:12:55;98068.28;;;22.41;38.68
76605;BME280;65496;50.978;16.998;2023-03-14T13:15:26;98069.06;;;22.42;39.07
76605;BME280;65496;50.978;16.998;2023-03-14T13:17:56;98067.44;;;22.44;39.24
76605;BME280;65496;50.978;16.998;2023-03-14T13:20:30;98073.75;;;22.45;39.55
76605;BME280;65496;50.978;16.998;2023-03-14T13:22:57;98061.94;;;22.44;39.45
76605;BME280;65496;50.978;16.998;2023-03-14T13:25:23;98068.22;;;22.45;39.76
76605;BME280;65496;50.978;16.998;2023-03-14T13:27:52;98067.88;;;22.43;39.60
76605;BME280;65496;50.978;16.998;2023-03-14T13:30:22;98067.81;;;22.46;39.83
76605;BME280;65496;50.978;16.998;2023-03-14T13:32:51;98063.53;;;22.42;39.79
76605;BME280;65496;50.978;16.998;2023-03-14T13:35:27;98064.69;;;22.44;39.73
76605;BME280;65496;50.978;16.998;2023-03-14T13:37:59;98052.88;;;22.44;39.67
76605;BME280;65496;50.978;16.998;2023-03-14T13:40:34;98072.16;;;22.44;39.70
76605;BME280;65496;50.978;16.998;2023-03-14T13:43:24;98072.59;;;22.42;39.55
76605;BME280;65496;50.978;16.998;2023-03-14T13:48:28;98073.78;;;22.41;39.43
76605;BME280;65496;50.978;16.998;2023-03-14T13:51:05;98079.75;;;22.40;39.65
76605;BME280;65496;50.978;16.998;2023-03-14T13:53:42;98068.72;;;22.40;39.48
76605;BME280;65496;50.978;16.998;2023-03-14T13:56:09;98075.41;;;22.39;39.41
76605;BME280;65496;50.978;16.998;2023-03-14T13:58:37;98067.13;;;22.39;39.47
76605;BME280;65496;50.978;16.998;2023-03-14T14:01:16;98073.84;;;22.38;39.38
76605;BME280;65496;50.978;16.998;2023-03-14T14:03:46;98064.78;;;22.37;39.35
76605;BME280;65496;50.978;16.998;2023-03-14T14:09:01;98075.03;;;22.37;39.31
76605;BME280;65496;50.978;16.998;2023-03-14T14:14:12;98065.22;;;22.36;39.39
76605;BME280;65496;50.978;16.998;2023-03-14T14:16:38;98072.28;;;22.37;39.58
76605;BME280;65496;50.978;16.998;2023-03-14T14:19:05;98064.84;;;22.33;39.29